createdAt,value
2019-03-27T00:00:38.804Z,7.82
2019-03-27T00:01:38.811Z,7.85
2019-03-27T00:02:38.819Z,7.79
2019-03-27T00:03:38.776Z,7.90
2019-03-27T00:04:38.819Z,7.80
2019-03-27T00:05:38.757Z,7.79
2019-03-27T00:06:38.728Z,7.82
2019-03-27T00:07:38.735Z,7.77
2019-03-27T00:08:38.711Z,7.77
2019-03-27T00:09:43.789Z,7.75
2019-03-27T00:10:38.689Z,7.79
2019-03-27T00:11:38.759Z,7.75
2019-03-27T00:12:38.677Z,7.79
2019-03-27T00:13:38.708Z,7.74
2019-03-27T00:14:38.650Z,7.79
2019-03-27T00:15:38.628Z,7.79
2019-03-27T00:16:38.621Z,7.82
2019-03-27T00:17:38.638Z,7.79
2019-03-27T00:18:38.595Z,7.83
2019-03-27T00:19:38.590Z,7.80
2019-03-27T00:20:43.606Z,7.72
2019-03-27T00:21:38.561Z,7.77
2019-03-27T00:22:38.594Z,7.75
2019-03-27T00:23:38.576Z,7.71
2019-03-27T00:24:38.542Z,7.75
2019-03-27T00:25:38.515Z,7.77
2019-03-27T00:26:38.511Z,7.74
2019-03-27T00:27:38.503Z,7.80
2019-03-27T00:28:38.483Z,7.75
2019-03-27T00:29:38.471Z,7.77
2019-03-27T00:30:38.459Z,7.80
2019-03-27T00:31:43.472Z,7.80
2019-03-27T00:32:38.466Z,7.79
2019-03-27T00:33:38.428Z,7.80
2019-03-27T00:34:38.414Z,7.82
2019-03-27T00:35:38.417Z,7.77
2019-03-27T00:36:38.394Z,7.75
2019-03-27T00:37:38.396Z,7.83
2019-03-27T00:38:38.389Z,7.79
2019-03-27T00:39:38.398Z,7.87
2019-03-27T00:40:38.356Z,7.82
2019-03-27T00:41:38.335Z,7.74
2019-03-27T00:42:43.614Z,7.69
2019-03-27T00:43:38.338Z,7.67
2019-03-27T00:44:38.349Z,7.71
2019-03-27T00:45:38.304Z,7.53
2019-03-27T00:46:38.289Z,7.57
2019-03-27T00:47:38.274Z,7.55
2019-03-27T00:48:38.261Z,7.55
2019-03-27T00:49:38.253Z,7.53
2019-03-27T00:50:38.231Z,7.49
2019-03-27T00:51:38.225Z,7.39
2019-03-27T00:52:38.251Z,7.49
2019-03-27T00:53:43.278Z,7.43
2019-03-27T00:54:38.203Z,7.42
2019-03-27T00:55:38.181Z,7.35
2019-03-27T00:56:38.231Z,7.32
2019-03-27T00:57:38.211Z,7.28
2019-03-27T00:58:38.140Z,7.32
2019-03-27T00:59:38.133Z,7.30
2019-03-27T01:00:38.130Z,7.25
2019-03-27T01:01:38.112Z,7.24
2019-03-27T01:02:38.108Z,7.30
2019-03-27T01:03:38.082Z,7.31
2019-03-27T01:04:43.092Z,7.24
2019-03-27T01:05:38.061Z,7.23
2019-03-27T01:06:38.057Z,7.21
2019-03-27T01:07:38.064Z,7.16
2019-03-27T01:08:38.033Z,7.16
2019-03-27T01:09:38.151Z,7.17
2019-03-27T01:10:38.004Z,7.15
2019-03-27T01:11:38.032Z,7.09
2019-03-27T01:12:38.006Z,6.97
2019-03-27T01:13:38.005Z,6.99
2019-03-27T01:14:37.992Z,6.97
2019-03-27T01:15:42.971Z,6.94
2019-03-27T01:16:37.970Z,6.94
2019-03-27T01:17:38.071Z,6.99
2019-03-27T01:18:37.955Z,6.88
2019-03-27T01:19:37.906Z,6.85
2019-03-27T01:20:37.904Z,6.88
2019-03-27T01:21:37.905Z,6.89
2019-03-27T01:22:37.870Z,6.91
2019-03-27T01:23:37.871Z,6.92
2019-03-27T01:24:37.856Z,6.98
2019-03-27T01:25:37.835Z,6.87
2019-03-27T01:26:42.849Z,7.02
2019-03-27T01:27:37.815Z,6.91
2019-03-27T01:28:37.820Z,6.92
2019-03-27T01:29:37.818Z,6.84
2019-03-27T01:30:37.779Z,6.84
2019-03-27T01:31:37.767Z,6.89
2019-03-27T01:32:37.757Z,6.80
2019-03-27T01:33:37.757Z,6.80
2019-03-27T01:34:37.735Z,6.79
2019-03-27T01:35:37.740Z,6.84
2019-03-27T01:36:37.719Z,6.85
2019-03-27T01:37:42.724Z,6.88
2019-03-27T01:38:37.698Z,6.76
2019-03-27T01:39:37.682Z,6.76
2019-03-27T01:40:37.675Z,6.79
2019-03-27T01:41:37.682Z,6.76
2019-03-27T01:42:37.658Z,6.76
2019-03-27T01:43:37.647Z,6.73
2019-03-27T01:44:37.709Z,6.73
2019-03-27T01:45:37.618Z,6.74
2019-03-27T01:46:37.626Z,6.79
2019-03-27T01:47:37.590Z,6.79
2019-03-27T01:48:42.623Z,6.71
2019-03-27T01:49:37.563Z,6.74
2019-03-27T01:50:37.558Z,6.73
2019-03-27T01:51:37.547Z,6.77
2019-03-27T01:52:37.569Z,6.73
2019-03-27T01:53:37.537Z,6.79
2019-03-27T01:54:37.517Z,6.80
2019-03-27T01:55:37.496Z,6.84
2019-03-27T01:56:37.485Z,6.81
2019-03-27T01:57:37.481Z,6.81
2019-03-27T01:58:37.486Z,6.80
2019-03-27T01:59:42.477Z,6.88
2019-03-27T02:00:37.513Z,6.91
2019-03-27T02:01:37.428Z,6.87
2019-03-27T02:02:37.425Z,6.88
2019-03-27T02:03:37.422Z,6.85
2019-03-27T02:04:37.420Z,6.94
2019-03-27T02:05:37.386Z,6.88
2019-03-27T02:06:37.376Z,6.95
2019-03-27T02:07:37.361Z,6.95
2019-03-27T02:08:37.363Z,6.92
2019-03-27T02:09:37.363Z,6.84
2019-03-27T02:10:42.354Z,6.92
2019-03-27T02:11:37.325Z,6.94
2019-03-27T02:12:37.306Z,6.97
2019-03-27T02:13:37.368Z,6.91
2019-03-27T02:14:37.291Z,6.99
2019-03-27T02:15:37.303Z,7.02
2019-03-27T02:16:37.263Z,7.05
2019-03-27T02:17:37.270Z,7.02
2019-03-27T02:18:37.252Z,7.02
2019-03-27T02:19:37.226Z,7.03
2019-03-27T02:20:37.240Z,7.16
2019-03-27T02:21:42.230Z,6.97
2019-03-27T02:22:37.196Z,7.02
2019-03-27T02:23:37.192Z,7.09
2019-03-27T02:24:37.179Z,7.03
2019-03-27T02:25:37.161Z,6.99
2019-03-27T02:26:37.189Z,7.02
2019-03-27T02:27:37.137Z,7.05
2019-03-27T02:28:37.135Z,7.09
2019-03-27T02:29:37.118Z,7.10
2019-03-27T02:30:37.116Z,7.13
2019-03-27T02:31:37.090Z,7.13
2019-03-27T02:32:42.179Z,7.21
2019-03-27T02:33:37.098Z,7.24
2019-03-27T02:34:37.065Z,7.23
2019-03-27T02:35:37.051Z,7.17
2019-03-27T02:36:37.039Z,7.21
2019-03-27T02:37:37.022Z,7.31
2019-03-27T02:38:37.032Z,7.25
2019-03-27T02:39:37.014Z,7.31
2019-03-27T02:40:36.985Z,7.32
2019-03-27T02:41:36.991Z,7.27
2019-03-27T02:42:36.999Z,7.28
2019-03-27T02:43:42.009Z,7.32
2019-03-27T02:44:36.940Z,7.34
2019-03-27T02:45:36.928Z,7.35
2019-03-27T02:46:36.932Z,7.32
2019-03-27T02:47:36.930Z,7.40
2019-03-27T02:48:36.926Z,7.40
2019-03-27T02:49:36.893Z,7.45
2019-03-27T02:50:36.873Z,7.37
2019-03-27T02:51:36.863Z,7.46
2019-03-27T02:52:36.856Z,7.43
2019-03-27T02:53:36.872Z,7.40
2019-03-27T02:54:41.880Z,7.42
2019-03-27T02:55:36.821Z,7.37
2019-03-27T02:56:36.822Z,7.35
2019-03-27T02:57:36.815Z,7.27
2019-03-27T02:58:36.849Z,7.39
2019-03-27T02:59:36.777Z,7.28
2019-03-27T03:00:36.786Z,7.30
2019-03-27T03:01:36.749Z,7.32
2019-03-27T03:02:36.750Z,7.35
2019-03-27T03:03:36.747Z,7.42
2019-03-27T03:04:36.739Z,7.34
2019-03-27T03:05:41.723Z,7.45
2019-03-27T03:06:36.707Z,7.42
2019-03-27T03:07:36.686Z,7.32
2019-03-27T03:08:36.679Z,7.35
2019-03-27T03:09:36.662Z,7.43
2019-03-27T03:10:36.675Z,7.35
2019-03-27T03:11:36.637Z,7.46
2019-03-27T03:12:36.648Z,7.46
2019-03-27T03:13:36.637Z,7.40
2019-03-27T03:14:36.641Z,7.43
2019-03-27T03:15:36.604Z,7.46
2019-03-27T03:16:43.296Z,7.39
2019-03-27T03:17:36.569Z,7.32
2019-03-27T03:18:36.575Z,7.42
2019-03-27T03:19:36.551Z,7.34
2019-03-27T03:20:36.543Z,7.43
2019-03-27T03:21:36.522Z,7.46
2019-03-27T03:22:36.510Z,7.42
2019-03-27T03:23:36.559Z,7.39
2019-03-27T03:24:36.505Z,7.40
2019-03-27T03:25:36.503Z,7.37
2019-03-27T03:26:36.482Z,7.45
2019-03-27T03:27:41.477Z,7.48
2019-03-27T03:28:36.469Z,7.46
2019-03-27T03:29:36.464Z,7.48
2019-03-27T03:30:36.470Z,7.48
2019-03-27T03:31:36.425Z,7.49
2019-03-27T03:32:36.398Z,7.42
2019-03-27T03:33:36.401Z,7.42
2019-03-27T03:34:36.386Z,7.43
2019-03-27T03:35:36.365Z,7.42
2019-03-27T03:36:36.378Z,7.40
2019-03-27T03:37:36.359Z,7.43
2019-03-27T03:38:41.373Z,7.48
2019-03-27T03:39:36.316Z,7.43
2019-03-27T03:40:36.320Z,7.37
2019-03-27T03:41:36.303Z,7.32
2019-03-27T03:42:36.285Z,7.32
2019-03-27T03:43:36.285Z,7.42
2019-03-27T03:44:36.338Z,7.35
2019-03-27T03:45:36.277Z,7.37
2019-03-27T03:46:36.240Z,7.31
2019-03-27T03:47:36.235Z,7.28
2019-03-27T03:48:36.226Z,7.25
2019-03-27T03:49:41.225Z,7.24
2019-03-27T03:50:36.199Z,7.15
2019-03-27T03:51:36.180Z,7.12
2019-03-27T03:52:36.175Z,7.23
2019-03-27T03:53:36.190Z,7.15
2019-03-27T03:54:36.182Z,7.12
2019-03-27T03:55:36.136Z,7.10
2019-03-27T03:56:36.131Z,7.07
2019-03-27T03:57:36.133Z,7.13
2019-03-27T03:58:36.114Z,7.07
2019-03-27T03:59:36.097Z,7.17
2019-03-27T04:00:41.100Z,7.07
2019-03-27T04:01:36.066Z,7.09
2019-03-27T04:02:36.078Z,7.06
2019-03-27T04:03:36.143Z,7.06
2019-03-27T04:04:36.041Z,7.06
2019-03-27T04:05:36.097Z,7.05
2019-03-27T04:06:36.014Z,7.02
2019-03-27T04:07:36.006Z,6.98
2019-03-27T04:08:36.003Z,7.03
2019-03-27T04:09:35.977Z,6.97
2019-03-27T04:10:35.980Z,6.92
2019-03-27T04:11:40.974Z,6.89
2019-03-27T04:12:35.942Z,6.89
2019-03-27T04:13:35.945Z,6.91
2019-03-27T04:14:35.924Z,6.85
2019-03-27T04:15:35.908Z,6.85
2019-03-27T04:16:35.912Z,6.84
2019-03-27T04:17:35.881Z,6.85
2019-03-27T04:18:35.902Z,6.80
2019-03-27T04:19:35.862Z,6.89
2019-03-27T04:20:35.866Z,6.76
2019-03-27T04:21:35.857Z,6.79
2019-03-27T04:22:40.853Z,6.76
2019-03-27T04:23:35.830Z,6.77
2019-03-27T04:24:35.809Z,6.81
2019-03-27T04:26:00.432Z,6.77
2019-03-27T04:26:36.804Z,6.71
2019-03-27T04:27:35.785Z,6.79
2019-03-27T04:28:35.789Z,6.74
2019-03-27T04:29:35.749Z,6.70
2019-03-27T04:30:35.743Z,6.58
2019-03-27T04:31:35.739Z,6.58
2019-03-27T04:32:35.729Z,6.64
2019-03-27T04:33:40.809Z,6.64
2019-03-27T04:34:35.689Z,6.58
2019-03-27T04:35:35.694Z,6.46
2019-03-27T04:36:35.667Z,6.56
2019-03-27T04:37:35.660Z,6.46
2019-03-27T04:38:35.654Z,6.38
2019-03-27T04:39:35.660Z,6.56
2019-03-27T04:40:35.622Z,6.48
2019-03-27T04:41:35.629Z,6.52
2019-03-27T04:42:35.607Z,6.41
2019-03-27T04:43:35.599Z,6.49
2019-03-27T04:44:40.612Z,6.48
2019-03-27T04:45:35.579Z,6.52
2019-03-27T04:46:35.556Z,6.52
2019-03-27T04:47:35.555Z,6.49
2019-03-27T04:48:35.538Z,6.51
2019-03-27T04:49:35.541Z,6.44
2019-03-27T04:50:35.519Z,6.51
2019-03-27T04:51:35.497Z,6.43
2019-03-27T04:52:35.490Z,6.49
2019-03-27T04:53:35.506Z,6.41
2019-03-27T04:54:35.484Z,6.51
2019-03-27T04:55:40.498Z,6.44
2019-03-27T04:56:35.445Z,6.44
2019-03-27T04:57:35.433Z,6.44
2019-03-27T04:58:35.422Z,6.56
2019-03-27T04:59:35.436Z,6.64
2019-03-27T05:00:35.413Z,6.55
2019-03-27T05:01:35.387Z,6.59
2019-03-27T05:02:35.377Z,6.67
2019-03-27T05:03:35.365Z,6.55
2019-03-27T05:04:35.384Z,6.51
2019-03-27T05:05:35.352Z,6.61
2019-03-27T05:06:40.386Z,6.58
2019-03-27T05:07:35.329Z,6.58
2019-03-27T05:08:35.309Z,6.64
2019-03-27T05:09:35.339Z,6.61
2019-03-27T05:10:35.299Z,6.66
2019-03-27T05:11:35.282Z,6.59
2019-03-27T05:12:38.509Z,6.55
2019-03-27T05:13:35.253Z,6.66
2019-03-27T05:14:35.268Z,6.66
2019-03-27T05:15:35.254Z,6.64
2019-03-27T05:16:35.225Z,6.56
2019-03-27T05:17:45.592Z,6.61
2019-03-27T05:18:36.197Z,6.64
2019-03-27T05:19:35.198Z,6.73
2019-03-27T05:20:35.175Z,6.69
2019-03-27T05:21:35.166Z,6.74
2019-03-27T05:22:35.188Z,6.69
2019-03-27T05:23:35.167Z,6.66
2019-03-27T05:24:35.172Z,6.71
2019-03-27T05:25:35.120Z,6.70
2019-03-27T05:26:35.109Z,6.80
2019-03-27T05:27:36.430Z,6.70
2019-03-27T05:28:40.127Z,6.64
2019-03-27T05:29:35.105Z,6.79
2019-03-27T05:30:35.065Z,6.81
2019-03-27T05:31:35.052Z,6.80
2019-03-27T05:32:35.081Z,6.77
2019-03-27T05:33:35.037Z,6.76
2019-03-27T05:34:35.047Z,6.71
2019-03-27T05:35:35.015Z,6.77
2019-03-27T05:36:34.998Z,6.77
2019-03-27T05:37:35.058Z,6.84
2019-03-27T05:38:34.975Z,6.77
2019-03-27T05:39:40.107Z,6.89
2019-03-27T05:40:35.005Z,6.85
2019-03-27T05:41:34.961Z,6.88
2019-03-27T05:42:34.930Z,6.91
2019-03-27T05:43:34.921Z,6.85
2019-03-27T05:44:34.923Z,6.84
2019-03-27T05:45:34.907Z,6.85
2019-03-27T05:46:34.885Z,6.89
2019-03-27T05:47:34.874Z,6.92
2019-03-27T05:48:34.865Z,6.94
2019-03-27T05:49:34.861Z,6.97
2019-03-27T05:50:39.867Z,6.98
2019-03-27T05:51:34.836Z,6.99
2019-03-27T05:52:34.816Z,7.03
2019-03-27T05:53:34.813Z,7.06
2019-03-27T05:54:34.808Z,7.02
2019-03-27T05:55:34.808Z,7.17
2019-03-27T05:56:34.784Z,7.12
2019-03-27T05:57:34.776Z,7.21
2019-03-27T05:58:34.758Z,7.21
2019-03-27T05:59:34.755Z,7.20
2019-03-27T06:00:34.782Z,7.27
2019-03-27T06:01:39.783Z,7.23
2019-03-27T06:02:34.736Z,7.27
2019-03-27T06:03:34.699Z,7.32
2019-03-27T06:04:34.748Z,7.27
2019-03-27T06:05:34.674Z,7.25
2019-03-27T06:06:34.676Z,7.25
2019-03-27T06:07:34.653Z,7.28
2019-03-27T06:08:34.650Z,7.32
2019-03-27T06:09:34.668Z,7.30
2019-03-27T06:10:34.656Z,7.32
2019-03-27T06:11:34.630Z,7.31
2019-03-27T06:12:39.948Z,7.32
2019-03-27T06:13:34.602Z,7.24
2019-03-27T06:14:34.587Z,7.27
2019-03-27T06:15:34.558Z,7.25
2019-03-27T06:16:34.544Z,7.31
2019-03-27T06:17:34.533Z,7.25
2019-03-27T06:18:34.532Z,7.23
2019-03-27T06:19:34.525Z,7.25
2019-03-27T06:20:34.502Z,7.30
2019-03-27T06:21:34.486Z,7.28
2019-03-27T06:22:34.482Z,7.17
2019-03-27T06:23:39.505Z,7.15
2019-03-27T06:24:34.472Z,7.15
2019-03-27T06:25:34.477Z,7.21
2019-03-27T06:26:34.429Z,7.24
2019-03-27T06:27:34.421Z,7.20
2019-03-27T06:28:34.407Z,7.17
2019-03-27T06:29:34.408Z,7.12
2019-03-27T06:30:34.390Z,6.99
2019-03-27T06:31:34.376Z,6.98
2019-03-27T06:32:34.379Z,6.85
2019-03-27T06:33:34.356Z,6.74
2019-03-27T06:34:39.425Z,6.81
2019-03-27T06:35:34.328Z,6.70
2019-03-27T06:36:34.336Z,6.64
2019-03-27T06:37:34.326Z,6.64
2019-03-27T06:38:34.309Z,6.59
2019-03-27T06:39:34.294Z,6.64
2019-03-27T06:40:34.271Z,6.62
2019-03-27T06:41:34.263Z,6.67
2019-03-27T06:42:34.248Z,6.62
2019-03-27T06:43:34.241Z,6.58
2019-03-27T06:44:34.253Z,6.64
2019-03-27T06:45:39.238Z,6.55
2019-03-27T06:46:34.210Z,6.41
2019-03-27T06:47:34.239Z,6.44
2019-03-27T06:48:34.186Z,6.48
2019-03-27T06:49:34.187Z,6.46
2019-03-27T06:50:34.177Z,6.54
2019-03-27T06:51:40.062Z,6.48
2019-03-27T06:52:35.136Z,6.54
2019-03-27T06:53:34.151Z,6.56
2019-03-27T06:54:34.128Z,6.62
2019-03-27T06:55:34.160Z,6.64
2019-03-27T06:56:39.139Z,6.66
2019-03-27T06:57:34.132Z,6.69
2019-03-27T06:58:34.085Z,6.77
2019-03-27T06:59:34.069Z,6.76
2019-03-27T07:00:34.046Z,6.79
2019-03-27T07:01:34.052Z,6.84
2019-03-27T07:02:34.031Z,6.77
2019-03-27T07:03:34.011Z,6.88
2019-03-27T07:04:34.010Z,6.95
2019-03-27T07:05:33.987Z,7.05
2019-03-27T07:06:33.977Z,7.05
2019-03-27T07:07:39.556Z,7.17
2019-03-27T07:08:33.969Z,7.15
2019-03-27T07:09:33.954Z,7.25
2019-03-27T07:10:33.937Z,7.32
2019-03-27T07:11:33.925Z,7.27
2019-03-27T07:12:33.914Z,7.39
2019-03-27T07:13:33.904Z,7.42
2019-03-27T07:14:33.913Z,7.37
2019-03-27T07:15:35.745Z,7.48
2019-03-27T07:16:33.915Z,7.48
2019-03-27T07:17:33.852Z,7.48
2019-03-27T07:18:40.251Z,7.50
2019-03-27T07:19:33.845Z,7.63
2019-03-27T07:20:33.830Z,7.77
2019-03-27T07:21:33.809Z,7.80
2019-03-27T07:22:33.794Z,7.92
2019-03-27T07:23:33.786Z,8.00
2019-03-27T07:24:33.785Z,8.07
2019-03-27T07:25:33.767Z,8.15
2019-03-27T07:26:33.752Z,8.15
2019-03-27T07:27:33.738Z,8.25
2019-03-27T07:28:33.726Z,8.28
2019-03-27T07:29:38.750Z,8.26
2019-03-27T07:30:33.705Z,8.34
2019-03-27T07:31:33.698Z,8.40
2019-03-27T07:32:33.683Z,8.53
2019-03-27T07:33:33.675Z,8.59
2019-03-27T07:34:33.673Z,8.68
2019-03-27T07:35:33.654Z,8.73
2019-03-27T07:36:33.641Z,8.83
2019-03-27T07:37:33.627Z,8.95
2019-03-27T07:38:33.618Z,9.01
2019-03-27T07:39:33.712Z,8.92
2019-03-27T07:40:38.620Z,9.11
2019-03-27T07:41:33.585Z,9.10
2019-03-27T07:42:33.572Z,9.23
2019-03-27T07:43:33.567Z,9.33
2019-03-27T07:44:33.559Z,9.46
2019-03-27T07:45:33.536Z,9.53
2019-03-27T07:46:33.527Z,9.68
2019-03-27T07:47:33.517Z,10.30
2019-03-27T07:48:33.538Z,11.09
2019-03-27T07:49:33.516Z,11.94
2019-03-27T07:50:33.479Z,12.21
2019-03-27T07:51:38.495Z,12.78
2019-03-27T07:52:33.475Z,13.41
2019-03-27T07:53:33.449Z,13.82
2019-03-27T07:54:33.465Z,14.12
2019-03-27T07:55:33.424Z,14.17
2019-03-27T07:56:33.411Z,14.33
2019-03-27T07:57:33.400Z,14.52
2019-03-27T07:58:33.398Z,14.50
2019-03-27T07:59:33.399Z,14.73
2019-03-27T08:00:33.367Z,14.64
2019-03-27T08:01:33.359Z,14.86
2019-03-27T08:02:38.368Z,14.98
2019-03-27T08:03:33.338Z,15.29
2019-03-27T08:04:33.332Z,15.47
2019-03-27T08:05:33.360Z,15.67
2019-03-27T08:06:33.317Z,15.72
2019-03-27T08:07:33.289Z,15.44
2019-03-27T08:08:33.277Z,15.31
2019-03-27T08:09:33.292Z,14.46
2019-03-27T08:10:33.257Z,13.95
2019-03-27T08:11:33.288Z,13.82
2019-03-27T08:12:33.233Z,13.64
2019-03-27T08:13:38.242Z,13.69
2019-03-27T08:14:33.217Z,13.81
2019-03-27T08:15:33.223Z,13.99
2019-03-27T08:16:33.186Z,14.27
2019-03-27T08:17:33.175Z,14.43
2019-03-27T08:18:33.161Z,14.54
2019-03-27T08:19:33.154Z,14.72
2019-03-27T08:20:33.181Z,14.51
2019-03-27T08:21:33.138Z,14.54
2019-03-27T08:22:33.123Z,14.29
2019-03-27T08:23:33.105Z,14.29
2019-03-27T08:24:38.129Z,14.50
2019-03-27T08:25:33.108Z,14.47
2019-03-27T08:26:33.070Z,14.65
2019-03-27T08:27:33.076Z,14.36
2019-03-27T08:28:33.048Z,14.21
2019-03-27T08:29:33.036Z,14.42
2019-03-27T08:30:33.037Z,14.94
2019-03-27T08:31:33.018Z,15.21
2019-03-27T08:32:33.003Z,15.90
2019-03-27T08:33:33.002Z,16.42
2019-03-27T08:34:32.983Z,16.46
2019-03-27T08:35:38.003Z,16.81
2019-03-27T08:36:32.965Z,16.76
2019-03-27T08:37:32.974Z,16.70
2019-03-27T08:38:32.936Z,16.57
2019-03-27T08:39:32.924Z,16.00
2019-03-27T08:40:32.927Z,15.67
2019-03-27T08:41:32.902Z,15.20
2019-03-27T08:42:32.890Z,14.77
2019-03-27T08:43:32.880Z,14.94
2019-03-27T08:44:32.873Z,14.69
2019-03-27T08:45:32.868Z,14.40
2019-03-27T08:46:37.871Z,14.65
2019-03-27T08:47:32.835Z,14.95
2019-03-27T08:48:32.821Z,15.13
2019-03-27T08:49:32.817Z,15.51
2019-03-27T08:50:32.812Z,15.69
2019-03-27T08:51:32.789Z,15.87
2019-03-27T08:52:32.779Z,16.07
2019-03-27T08:53:32.766Z,16.04
2019-03-27T08:54:32.758Z,15.64
2019-03-27T08:55:32.754Z,15.46
2019-03-27T08:56:32.737Z,15.53
2019-03-27T08:57:37.749Z,15.71
2019-03-27T08:58:32.710Z,16.05
2019-03-27T08:59:32.781Z,16.15
2019-03-27T09:00:32.700Z,16.15
2019-03-27T09:01:32.675Z,16.30
2019-03-27T09:02:32.664Z,16.33
2019-03-27T09:03:32.655Z,16.14
2019-03-27T09:04:32.645Z,16.11
2019-03-27T09:05:32.646Z,16.08
2019-03-27T09:06:33.946Z,16.11
2019-03-27T09:07:32.620Z,15.93
2019-03-27T09:08:37.626Z,15.72
2019-03-27T09:09:32.585Z,15.87
2019-03-27T09:10:32.590Z,15.74
2019-03-27T09:11:32.563Z,14.96
2019-03-27T09:12:32.550Z,14.35
2019-03-27T09:13:32.542Z,14.12
2019-03-27T09:14:32.536Z,14.21
2019-03-27T09:15:32.540Z,14.42
2019-03-27T09:16:32.506Z,14.42
2019-03-27T09:17:32.541Z,14.46
2019-03-27T09:18:32.490Z,14.50
2019-03-27T09:19:37.496Z,14.47
2019-03-27T09:20:32.474Z,14.22
2019-03-27T09:21:32.465Z,13.78
2019-03-27T09:22:32.439Z,13.54
2019-03-27T09:23:32.425Z,13.64
2019-03-27T09:24:32.416Z,14.18
2019-03-27T09:25:32.416Z,14.64
2019-03-27T09:26:32.393Z,15.27
2019-03-27T09:27:32.414Z,15.53
2019-03-27T09:28:32.379Z,15.67
2019-03-27T09:29:32.359Z,15.74
2019-03-27T09:30:37.409Z,15.89
2019-03-27T09:31:44.148Z,16.02
2019-03-27T09:32:33.329Z,16.24
2019-03-27T09:33:32.314Z,16.31
2019-03-27T09:34:32.301Z,16.63
2019-03-27T09:35:32.307Z,16.86
2019-03-27T09:36:32.399Z,17.08
2019-03-27T09:37:32.271Z,17.23
2019-03-27T09:38:32.260Z,17.07
2019-03-27T09:39:32.247Z,17.26
2019-03-27T09:40:32.250Z,17.16
2019-03-27T09:41:37.254Z,17.34
2019-03-27T09:42:32.213Z,17.40
2019-03-27T09:43:32.202Z,17.31
2019-03-27T09:44:32.189Z,17.18
2019-03-27T09:45:32.192Z,17.11
2019-03-27T09:46:32.168Z,16.71
2019-03-27T09:47:34.650Z,16.25
2019-03-27T09:48:32.144Z,16.04
2019-03-27T09:49:32.132Z,15.89
2019-03-27T09:50:32.132Z,16.25
2019-03-27T09:51:32.112Z,16.21
2019-03-27T09:52:37.120Z,16.46
2019-03-27T09:53:32.084Z,16.70
2019-03-27T09:54:32.074Z,16.24
2019-03-27T09:55:32.078Z,16.24
2019-03-27T09:56:32.054Z,16.33
2019-03-27T09:57:32.041Z,16.49
2019-03-27T09:58:32.031Z,16.46
2019-03-27T09:59:32.020Z,16.35
2019-03-27T10:00:32.019Z,16.24
2019-03-27T10:01:31.995Z,16.70
2019-03-27T10:02:31.981Z,16.98
2019-03-27T10:03:36.996Z,16.78
2019-03-27T10:04:31.967Z,16.34
2019-03-27T10:05:31.971Z,16.31
2019-03-27T10:06:31.955Z,16.33
2019-03-27T10:07:31.929Z,16.68
2019-03-27T10:08:31.917Z,16.85
2019-03-27T10:09:31.906Z,16.88
2019-03-27T10:10:31.910Z,16.78
2019-03-27T10:11:31.882Z,16.78
2019-03-27T10:12:31.872Z,16.75
2019-03-27T10:13:31.860Z,16.68
2019-03-27T10:14:36.872Z,16.70
2019-03-27T10:15:31.850Z,16.57
2019-03-27T10:16:31.826Z,16.07
2019-03-27T10:17:31.879Z,16.04
2019-03-27T10:18:31.810Z,16.15
2019-03-27T10:19:31.793Z,16.25
2019-03-27T10:20:31.806Z,16.53
2019-03-27T10:21:31.796Z,16.75
2019-03-27T10:22:31.759Z,16.94
2019-03-27T10:23:31.755Z,17.00
2019-03-27T10:24:31.750Z,17.11
2019-03-27T10:25:36.759Z,17.26
2019-03-27T10:26:31.715Z,17.62
2019-03-27T10:27:31.707Z,17.62
2019-03-27T10:28:31.696Z,17.56
2019-03-27T10:29:31.689Z,17.56
2019-03-27T10:30:31.713Z,17.71
2019-03-27T10:31:31.658Z,17.79
2019-03-27T10:32:31.646Z,17.71
2019-03-27T10:33:31.645Z,17.84
2019-03-27T10:34:31.624Z,18.18
2019-03-27T10:35:31.624Z,17.84
2019-03-27T10:36:36.624Z,17.64
2019-03-27T10:37:31.597Z,17.11
2019-03-27T10:38:31.586Z,16.31
2019-03-27T10:39:31.568Z,15.80
2019-03-27T10:40:31.576Z,15.29
2019-03-27T10:41:31.545Z,14.98
2019-03-27T10:42:31.535Z,14.88
2019-03-27T10:43:31.527Z,14.84
2019-03-27T10:44:31.511Z,14.69
2019-03-27T10:45:31.527Z,14.64
2019-03-27T10:46:31.492Z,14.65
2019-03-27T10:47:36.499Z,14.58
2019-03-27T10:48:31.466Z,14.58
2019-03-27T10:49:34.294Z,14.54
2019-03-27T10:50:31.457Z,14.45
2019-03-27T10:51:31.441Z,14.24
2019-03-27T10:52:31.421Z,14.27
2019-03-27T10:53:31.409Z,14.22
2019-03-27T10:54:31.400Z,14.00
2019-03-27T10:55:34.340Z,14.00
2019-03-27T10:56:31.378Z,13.97
2019-03-27T10:57:31.367Z,13.95
2019-03-27T10:58:36.417Z,13.91
2019-03-27T10:59:31.349Z,13.97
2019-03-27T11:00:31.341Z,13.79
2019-03-27T11:01:31.324Z,13.85
2019-03-27T11:02:31.307Z,14.43
2019-03-27T11:03:31.302Z,14.46
2019-03-27T11:04:31.286Z,14.39
2019-03-27T11:05:31.293Z,14.33
2019-03-27T11:06:31.265Z,14.27
2019-03-27T11:07:31.267Z,14.17
2019-03-27T11:08:31.242Z,14.12
2019-03-27T11:09:36.250Z,13.92
2019-03-27T11:10:31.305Z,13.85
2019-03-27T11:11:31.210Z,13.85
2019-03-27T11:12:31.195Z,13.77
2019-03-27T11:13:34.267Z,13.71
2019-03-27T11:14:37.867Z,13.69
2019-03-27T11:15:32.171Z,13.66
2019-03-27T11:16:31.161Z,13.54
2019-03-27T11:17:31.147Z,13.49
2019-03-27T11:18:31.131Z,13.38
2019-03-27T11:19:33.530Z,13.22
2019-03-27T11:20:36.143Z,13.20
2019-03-27T11:21:31.092Z,13.38
2019-03-27T11:22:31.088Z,13.81
2019-03-27T11:23:31.072Z,14.36
2019-03-27T11:24:31.069Z,14.65
2019-03-27T11:25:33.104Z,14.84
2019-03-27T11:26:31.036Z,15.25
2019-03-27T11:27:31.025Z,15.51
2019-03-27T11:28:31.011Z,15.53
2019-03-27T11:29:31.002Z,15.74
2019-03-27T11:30:31.010Z,16.02
2019-03-27T11:31:35.999Z,16.12
2019-03-27T11:32:30.967Z,16.38
2019-03-27T11:33:30.956Z,16.70
2019-03-27T11:34:30.944Z,17.08
2019-03-27T11:35:30.942Z,17.08
2019-03-27T11:36:30.935Z,17.16
2019-03-27T11:37:30.909Z,17.33
2019-03-27T11:38:30.898Z,17.36
2019-03-27T11:39:30.887Z,17.36
2019-03-27T11:40:30.880Z,17.63
2019-03-27T11:41:30.875Z,17.70
2019-03-27T11:42:35.877Z,17.87
2019-03-27T11:43:30.841Z,17.90
2019-03-27T11:44:30.836Z,18.05
2019-03-27T11:45:30.818Z,18.02
2019-03-27T11:46:32.235Z,17.86
2019-03-27T11:47:30.824Z,17.87
2019-03-27T11:48:30.785Z,17.84
2019-03-27T11:49:30.775Z,17.72
2019-03-27T11:50:43.741Z,17.63
2019-03-27T11:51:31.767Z,17.70
2019-03-27T11:52:30.745Z,17.23
2019-03-27T11:53:35.769Z,16.76
2019-03-27T11:54:30.719Z,16.42
2019-03-27T11:55:30.706Z,16.15
2019-03-27T11:56:30.709Z,15.97
2019-03-27T11:57:30.695Z,15.89
2019-03-27T11:58:30.674Z,15.82
2019-03-27T11:59:30.660Z,15.67
2019-03-27T12:00:30.653Z,15.56
2019-03-27T12:01:40.638Z,15.44
2019-03-27T12:02:31.633Z,15.50
2019-03-27T12:03:30.617Z,15.50
2019-03-27T12:04:35.628Z,15.28
2019-03-27T12:05:30.594Z,15.10
2019-03-27T12:06:30.595Z,15.07
2019-03-27T12:07:30.570Z,14.69
2019-03-27T12:08:30.558Z,14.55
2019-03-27T12:09:30.555Z,14.60
2019-03-27T12:10:30.542Z,14.52
2019-03-27T12:11:30.536Z,14.39
2019-03-27T12:12:30.523Z,14.32
2019-03-27T12:13:30.501Z,14.24
2019-03-27T12:14:30.501Z,14.21
2019-03-27T12:15:35.501Z,14.18
2019-03-27T12:16:30.479Z,14.14
2019-03-27T12:17:30.465Z,14.10
2019-03-27T12:18:32.041Z,13.92
2019-03-27T12:19:30.440Z,14.00
2019-03-27T12:20:30.449Z,13.81
2019-03-27T12:21:30.437Z,13.63
2019-03-27T12:22:30.400Z,13.67
2019-03-27T12:23:30.391Z,13.62
2019-03-27T12:24:30.383Z,13.63
2019-03-27T12:25:30.370Z,13.64
2019-03-27T12:26:35.393Z,13.57
2019-03-27T12:27:30.345Z,13.54
2019-03-27T12:28:30.426Z,13.52
2019-03-27T12:29:30.325Z,13.38
2019-03-27T12:30:30.310Z,13.41
2019-03-27T12:31:30.324Z,13.49
2019-03-27T12:32:30.286Z,13.55
2019-03-27T12:33:30.278Z,13.42
2019-03-27T12:34:30.332Z,13.44
2019-03-27T12:35:30.256Z,13.41
2019-03-27T12:36:30.256Z,13.28
2019-03-27T12:37:35.255Z,13.28
2019-03-27T12:38:30.253Z,13.33
2019-03-27T12:39:30.205Z,13.26
2019-03-27T12:40:30.204Z,13.41
2019-03-27T12:41:32.919Z,13.41
2019-03-27T12:42:30.200Z,13.41
2019-03-27T12:43:30.169Z,13.42
2019-03-27T12:44:30.148Z,13.48
2019-03-27T12:45:30.139Z,13.51
2019-03-27T12:46:30.166Z,13.52
2019-03-27T12:47:30.117Z,13.60
2019-03-27T12:48:35.128Z,13.62
2019-03-27T12:49:30.091Z,13.66
2019-03-27T12:50:30.083Z,13.55
2019-03-27T12:51:30.081Z,13.54
2019-03-27T12:52:30.059Z,13.52
2019-03-27T12:53:30.047Z,13.52
2019-03-27T12:54:30.050Z,13.60
2019-03-27T12:55:30.024Z,13.57
2019-03-27T12:56:30.029Z,13.54
2019-03-27T12:57:30.002Z,13.57
2019-03-27T12:58:29.995Z,13.54
2019-03-27T12:59:35.001Z,13.55
2019-03-27T13:00:29.968Z,13.62
2019-03-27T13:01:29.973Z,13.60
2019-03-27T13:02:29.946Z,13.63
2019-03-27T13:03:29.934Z,13.66
2019-03-27T13:04:29.925Z,13.67
2019-03-27T13:05:29.924Z,13.62
2019-03-27T13:06:29.915Z,13.62
2019-03-27T13:07:29.897Z,13.66